sensor_id;sensor_type;location;lat;lon;timestamp;temperature;humidity
40676;DHT22;26359;48.750;9.314;2023-04-03T00:00:47;4.70;99.90
40676;DHT22;26359;48.750;9.314;2023-04-03T00:03:14;4.70;99.90
40676;DHT22;26359;48.750;9.314;2023-04-03T00:05:40;4.70;99.90
40676;DHT22;26359;48.750;9.314;2023-04-03T00:08:06;4.60;99.90
40676;DHT22;26359;48.750;9.314;2023-04-03T00:10:33;4.60;99.90
40676;DHT22;26359;48.750;9.314;2023-04-03T00:12:58;4.60;99.90
40676;DHT22;26359;48.750;9.314;2023-04-03T00:15:24;4.60;99.90
40676;DHT22;26359;48.750;9.314;2023-04-03T00:17:50;4.60;99.90
40676;DHT22;26359;48.750;9.314;2023-04-03T00:20:16;4.50;99.90
40676;DHT22;26359;48.750;9.314;2023-04-03T00:22:41;4.50;99.90
40676;DHT22;26359;48.750;9.314;2023-04-03T00:25:07;4.60;99.90
40676;DHT22;26359;48.750;9.314;2023-04-03T00:27:33;4.60;99.90
40676;DHT22;26359;48.750;9.314;2023-04-03T00:29:58;4.60;99.90
40676;DHT22;26359;48.750;9.314;2023-04-03T00:32:24;4.60;99.90
40676;DHT22;26359;48.750;9.314;2023-04-03T00:34:49;4.50;99.90
40676;DHT22;26359;48.750;9.314;2023-04-03T00:37:15;4.50;99.90
40676;DHT22;26359;48.750;9.314;2023-04-03T00:39:40;4.50;99.90
40676;DHT22;26359;48.750;9.314;2023-04-03T00:42:06;4.50;99.90
40676;DHT22;26359;48.750;9.314;2023-04-03T00:47:01;4.50;99.90
40676;DHT22;26359;48.750;9.314;2023-04-03T00:49:29;4.50;99.90
40676;DHT22;26359;48.750;9.314;2023-04-03T00:51:55;4.60;99.90
40676;DHT22;26359;48.750;9.314;2023-04-03T00:54:22;4.50;99.90
40676;DHT22;26359;48.750;9.314;2023-04-03T00:56:50;4.50;99.90
40676;DHT22;26359;48.750;9.314;2023-04-03T00:59:23;4.50;99.90
40676;DHT22;26359;48.750;9.314;2023-04-03T01:01:55;4.50;99.90
40676;DHT22;26359;48.750;9.314;2023-04-03T01:04:39;4.60;99.90
40676;DHT22;26359;48.750;9.314;2023-04-03T01:07:11;4.50;99.90
40676;DHT22;26359;48.750;9.314;2023-04-03T01:09:38;4.60;99.90
40676;DHT22;26359;48.750;9.314;2023-04-03T01:12:22;4.60;99.90
40676;DHT22;26359;48.750;9.314;2023-04-03T01:14:51;4.60;99.90
40676;DHT22;26359;48.750;9.314;2023-04-03T01:17:39;4.60;99.90
40676;DHT22;26359;48.750;9.314;2023-04-03T01:25:56;4.50;99.90
40676;DHT22;26359;48.750;9.314;2023-04-03T01:28:32;4.50;99.90
40676;DHT22;26359;48.750;9.314;2023-04-03T01:31:20;4.50;99.90
40676;DHT22;26359;48.750;9.314;2023-04-03T01:33:47;4.50;99.90
40676;DHT22;26359;48.750;9.314;2023-04-03T01:36:16;4.60;99.90
40676;DHT22;26359;48.750;9.314;2023-04-03T01:38:42;4.50;99.90
40676;DHT22;26359;48.750;9.314;2023-04-03T01:41:08;4.50;99.90
40676;DHT22;26359;48.750;9.314;2023-04-03T01:43:33;4.50;99.90
40676;DHT22;26359;48.750;9.314;2023-04-03T01:45:59;4.50;99.90
40676;DHT22;26359;48.750;9.314;2023-04-03T01:48:25;4.50;99.90
40676;DHT22;26359;48.750;9.314;2023-04-03T01:50:50;4.40;99.90
40676;DHT22;26359;48.750;9.314;2023-04-03T01:53:16;4.50;99.90
40676;DHT22;26359;48.750;9.314;2023-04-03T01:55:41;4.50;99.90
40676;DHT22;26359;48.750;9.314;2023-04-03T01:58:07;4.50;99.90
40676;DHT22;26359;48.750;9.314;2023-04-03T02:00:32;4.50;99.90
40676;DHT22;26359;48.750;9.314;2023-04-03T02:02:58;4.50;99.90
40676;DHT22;26359;48.750;9.314;2023-04-03T02:05:23;4.50;99.90
40676;DHT22;26359;48.750;9.314;2023-04-03T02:07:49;4.50;99.90
40676;DHT22;26359;48.750;9.314;2023-04-03T02:10:15;4.50;99.90
40676;DHT22;26359;48.750;9.314;2023-04-03T02:12:41;4.50;99.90
40676;DHT22;26359;48.750;9.314;2023-04-03T02:15:07;4.50;99.90
40676;DHT22;26359;48.750;9.314;2023-04-03T02:17:32;4.40;99.90
40676;DHT22;26359;48.750;9.314;2023-04-03T02:19:58;4.50;99.90
40676;DHT22;26359;48.750;9.314;2023-04-03T02:22:23;4.40;99.90
40676;DHT22;26359;48.750;9.314;2023-04-03T02:24:49;4.40;99.90
40676;DHT22;26359;48.750;9.314;2023-04-03T02:27:15;4.40;99.90
40676;DHT22;26359;48.750;9.314;2023-04-03T02:29:41;4.40;99.90
40676;DHT22;26359;48.750;9.314;2023-04-03T02:32:06;4.40;99.90
40676;DHT22;26359;48.750;9.314;2023-04-03T02:34:32;4.40;99.90
40676;DHT22;26359;48.750;9.314;2023-04-03T02:36:57;4.30;99.90
40676;DHT22;26359;48.750;9.314;2023-04-03T02:39:23;4.30;99.90
40676;DHT22;26359;48.750;9.314;2023-04-03T02:41:48;4.30;99.90
40676;DHT22;26359;48.750;9.314;2023-04-03T02:44:14;4.30;99.90
40676;DHT22;26359;48.750;9.314;2023-04-03T02:46:39;4.30;99.90
40676;DHT22;26359;48.750;9.314;2023-04-03T02:49:05;4.30;99.90
40676;DHT22;26359;48.750;9.314;2023-04-03T02:51:31;4.30;99.90
40676;DHT22;26359;48.750;9.314;2023-04-03T02:53:57;4.30;99.90
40676;DHT22;26359;48.750;9.314;2023-04-03T02:56:22;4.30;99.90
40676;DHT22;26359;48.750;9.314;2023-04-03T02:58:48;4.30;99.90
40676;DHT22;26359;48.750;9.314;2023-04-03T03:01:14;4.30;99.90
40676;DHT22;26359;48.750;9.314;2023-04-03T03:03:40;4.30;99.90
40676;DHT22;26359;48.750;9.314;2023-04-03T03:06:11;4.30;99.90
40676;DHT22;26359;48.750;9.314;2023-04-03T03:08:37;4.30;99.90
40676;DHT22;26359;48.750;9.314;2023-04-03T03:11:03;4.30;99.90
40676;DHT22;26359;48.750;9.314;2023-04-03T03:13:30;4.30;99.90
40676;DHT22;26359;48.750;9.314;2023-04-03T03:15:56;4.30;99.90
40676;DHT22;26359;48.750;9.314;2023-04-03T03:18:22;4.30;99.90
40676;DHT22;26359;48.750;9.314;2023-04-03T03:20:51;4.30;99.90
40676;DHT22;26359;48.750;9.314;2023-04-03T03:23:17;4.30;99.90
40676;DHT22;26359;48.750;9.314;2023-04-03T03:25:43;4.30;99.90
40676;DHT22;26359;48.750;9.314;2023-04-03T03:28:08;4.30;99.90
40676;DHT22;26359;48.750;9.314;2023-04-03T03:30:34;4.30;99.90
40676;DHT22;26359;48.750;9.314;2023-04-03T03:33:00;4.30;99.90
40676;DHT22;26359;48.750;9.314;2023-04-03T03:35:26;4.30;99.90
40676;DHT22;26359;48.750;9.314;2023-04-03T03:37:51;4.30;99.90
40676;DHT22;26359;48.750;9.314;2023-04-03T03:40:17;4.30;99.90
40676;DHT22;26359;48.750;9.314;2023-04-03T03:42:42;4.30;99.90
40676;DHT22;26359;48.750;9.314;2023-04-03T03:45:08;4.30;99.90
40676;DHT22;26359;48.750;9.314;2023-04-03T03:47:34;4.30;99.90
40676;DHT22;26359;48.750;9.314;2023-04-03T03:50:00;4.30;99.90
40676;DHT22;26359;48.750;9.314;2023-04-03T03:52:26;4.30;99.90
40676;DHT22;26359;48.750;9.314;2023-04-03T03:54:52;4.30;99.90
40676;DHT22;26359;48.750;9.314;2023-04-03T03:57:17;4.30;99.90
40676;DHT22;26359;48.750;9.314;2023-04-03T03:59:43;4.20;99.90
40676;DHT22;26359;48.750;9.314;2023-04-03T04:02:10;4.20;99.90
40676;DHT22;26359;48.750;9.314;2023-04-03T04:04:35;4.20;99.90
40676;DHT22;26359;48.750;9.314;2023-04-03T04:07:01;4.20;99.90
40676;DHT22;26359;48.750;9.314;2023-04-03T04:09:27;4.20;99.90
40676;DHT22;26359;48.750;9.314;2023-04-03T04:11:53;4.30;99.90
40676;DHT22;26359;48.750;9.314;2023-04-03T04:14:18;4.30;99.90
40676;DHT22;26359;48.750;9.314;2023-04-03T04:16:46;4.30;99.90
40676;DHT22;26359;48.750;9.314;2023-04-03T04:19:12;4.30;99.90
40676;DHT22;26359;48.750;9.314;2023-04-03T04:21:38;4.30;99.90
40676;DHT22;26359;48.750;9.314;2023-04-03T04:24:03;4.30;99.90
40676;DHT22;26359;48.750;9.314;2023-04-03T04:26:29;4.30;99.90
40676;DHT22;26359;48.750;9.314;2023-04-03T04:28:55;4.30;99.90
40676;DHT22;26359;48.750;9.314;2023-04-03T04:31:20;4.30;99.90
40676;DHT22;26359;48.750;9.314;2023-04-03T04:33:46;4.30;99.90
40676;DHT22;26359;48.750;9.314;2023-04-03T04:36:11;4.40;99.90
40676;DHT22;26359;48.750;9.314;2023-04-03T04:38:37;4.40;99.90
40676;DHT22;26359;48.750;9.314;2023-04-03T04:41:03;4.40;99.90
40676;DHT22;26359;48.750;9.314;2023-04-03T04:43:29;4.30;99.90
40676;DHT22;26359;48.750;9.314;2023-04-03T04:46:06;4.40;99.90
40676;DHT22;26359;48.750;9.314;2023-04-03T04:48:33;4.40;99.90
40676;DHT22;26359;48.750;9.314;2023-04-03T04:50:58;4.40;99.90
40676;DHT22;26359;48.750;9.314;2023-04-03T04:53:24;4.40;99.90
40676;DHT22;26359;48.750;9.314;2023-04-03T04:55:50;4.40;99.90
40676;DHT22;26359;48.750;9.314;2023-04-03T04:58:16;4.30;99.90
40676;DHT22;26359;48.750;9.314;2023-04-03T05:00:42;4.40;99.90
40676;DHT22;26359;48.750;9.314;2023-04-03T05:03:08;4.40;99.90
40676;DHT22;26359;48.750;9.314;2023-04-03T05:05:33;4.30;99.90
40676;DHT22;26359;48.750;9.314;2023-04-03T05:07:59;4.30;99.90
40676;DHT22;26359;48.750;9.314;2023-04-03T05:10:24;4.40;99.90
40676;DHT22;26359;48.750;9.314;2023-04-03T05:12:50;4.40;99.90
40676;DHT22;26359;48.750;9.314;2023-04-03T05:15:16;4.40;99.90
40676;DHT22;26359;48.750;9.314;2023-04-03T05:17:41;4.40;99.90
40676;DHT22;26359;48.750;9.314;2023-04-03T05:20:07;4.40;99.90
40676;DHT22;26359;48.750;9.314;2023-04-03T05:22:33;4.30;99.90
40676;DHT22;26359;48.750;9.314;2023-04-03T05:24:59;4.40;99.90
40676;DHT22;26359;48.750;9.314;2023-04-03T05:27:25;4.40;99.90
40676;DHT22;26359;48.750;9.314;2023-04-03T05:29:53;4.40;99.90
40676;DHT22;26359;48.750;9.314;2023-04-03T05:32:19;4.40;99.90
40676;DHT22;26359;48.750;9.314;2023-04-03T05:34:45;4.40;99.90
40676;DHT22;26359;48.750;9.314;2023-04-03T05:37:11;4.40;99.90
40676;DHT22;26359;48.750;9.314;2023-04-03T05:39:37;4.40;99.90
40676;DHT22;26359;48.750;9.314;2023-04-03T05:42:05;4.40;99.90
40676;DHT22;26359;48.750;9.314;2023-04-03T05:44:31;4.40;99.90
40676;DHT22;26359;48.750;9.314;2023-04-03T05:46:56;4.40;99.90
40676;DHT22;26359;48.750;9.314;2023-04-03T05:49:22;4.40;99.90
40676;DHT22;26359;48.750;9.314;2023-04-03T05:51:47;4.40;99.90
40676;DHT22;26359;48.750;9.314;2023-04-03T05:54:19;4.40;99.90
40676;DHT22;26359;48.750;9.314;2023-04-03T05:56:45;4.30;99.90
40676;DHT22;26359;48.750;9.314;2023-04-03T05:59:11;4.30;99.90
40676;DHT22;26359;48.750;9.314;2023-04-03T06:01:37;4.30;99.90
40676;DHT22;26359;48.750;9.314;2023-04-03T06:04:03;4.30;99.90
40676;DHT22;26359;48.750;9.314;2023-04-03T06:06:48;4.30;99.90
40676;DHT22;26359;48.750;9.314;2023-04-03T06:09:15;4.20;99.90
40676;DHT22;26359;48.750;9.314;2023-04-03T06:11:40;4.30;99.90
40676;DHT22;26359;48.750;9.314;2023-04-03T06:14:07;4.70;99.90
40676;DHT22;26359;48.750;9.314;2023-04-03T06:16:33;4.80;99.90
40676;DHT22;26359;48.750;9.314;2023-04-03T06:18:59;4.70;99.90
40676;DHT22;26359;48.750;9.314;2023-04-03T06:21:25;4.70;99.90
40676;DHT22;26359;48.750;9.314;2023-04-03T06:23:50;4.70;99.90
40676;DHT22;26359;48.750;9.314;2023-04-03T06:26:16;4.70;99.90
40676;DHT22;26359;48.750;9.314;2023-04-03T06:28:42;4.70;99.90
40676;DHT22;26359;48.750;9.314;2023-04-03T06:31:07;4.80;99.90
40676;DHT22;26359;48.750;9.314;2023-04-03T06:33:34;4.80;99.90
40676;DHT22;26359;48.750;9.314;2023-04-03T06:36:02;4.70;99.90
40676;DHT22;26359;48.750;9.314;2023-04-03T06:38:28;4.70;99.90
40676;DHT22;26359;48.750;9.314;2023-04-03T06:40:54;4.70;99.90
40676;DHT22;26359;48.750;9.314;2023-04-03T06:43:19;4.70;99.90
40676;DHT22;26359;48.750;9.314;2023-04-03T06:45:46;4.60;99.90
40676;DHT22;26359;48.750;9.314;2023-04-03T06:48:12;4.70;99.90
40676;DHT22;26359;48.750;9.314;2023-04-03T06:50:38;4.70;99.90
40676;DHT22;26359;48.750;9.314;2023-04-03T06:53:03;4.60;99.90
40676;DHT22;26359;48.750;9.314;2023-04-03T06:55:29;4.70;99.90
40676;DHT22;26359;48.750;9.314;2023-04-03T06:57:55;4.70;99.90
40676;DHT22;26359;48.750;9.314;2023-04-03T07:00:20;4.80;99.90
40676;DHT22;26359;48.750;9.314;2023-04-03T07:02:46;4.80;99.90
40676;DHT22;26359;48.750;9.314;2023-04-03T07:05:12;4.70;99.90
40676;DHT22;26359;48.750;9.314;2023-04-03T07:07:38;4.70;99.90
40676;DHT22;26359;48.750;9.314;2023-04-03T07:10:05;4.70;99.90
40676;DHT22;26359;48.750;9.314;2023-04-03T07:12:31;4.80;99.90
40676;DHT22;26359;48.750;9.314;2023-04-03T07:14:57;4.80;99.90
40676;DHT22;26359;48.750;9.314;2023-04-03T07:17:22;4.80;99.90
40676;DHT22;26359;48.750;9.314;2023-04-03T07:19:48;4.80;99.90
40676;DHT22;26359;48.750;9.314;2023-04-03T07:22:13;5.00;99.90
40676;DHT22;26359;48.750;9.314;2023-04-03T07:24:39;5.10;99.90
40676;DHT22;26359;48.750;9.314;2023-04-03T07:27:05;5.10;99.90
40676;DHT22;26359;48.750;9.314;2023-04-03T07:29:30;5.10;99.90
40676;DHT22;26359;48.750;9.314;2023-04-03T07:31:56;5.20;99.90
40676;DHT22;26359;48.750;9.314;2023-04-03T07:34:22;5.20;99.90
40676;DHT22;26359;48.750;9.314;2023-04-03T07:36:47;5.20;99.90
40676;DHT22;26359;48.750;9.314;2023-04-03T07:39:14;5.20;99.90
40676;DHT22;26359;48.750;9.314;2023-04-03T07:41:40;5.20;99.90
40676;DHT22;26359;48.750;9.314;2023-04-03T07:44:05;5.20;99.90
40676;DHT22;26359;48.750;9.314;2023-04-03T07:46:31;5.30;99.90
40676;DHT22;26359;48.750;9.314;2023-04-03T07:48:57;5.30;99.90
40676;DHT22;26359;48.750;9.314;2023-04-03T07:51:23;5.40;99.90
40676;DHT22;26359;48.750;9.314;2023-04-03T07:53:49;5.50;99.90
40676;DHT22;26359;48.750;9.314;2023-04-03T07:56:16;5.60;99.90
40676;DHT22;26359;48.750;9.314;2023-04-03T07:58:42;5.70;99.90
40676;DHT22;26359;48.750;9.314;2023-04-03T08:01:08;5.70;99.90
40676;DHT22;26359;48.750;9.314;2023-04-03T08:03:33;5.70;99.90
40676;DHT22;26359;48.750;9.314;2023-04-03T08:06:06;5.70;99.90
40676;DHT22;26359;48.750;9.314;2023-04-03T08:08:32;5.80;99.90
40676;DHT22;26359;48.750;9.314;2023-04-03T08:11:00;5.80;99.90
40676;DHT22;26359;48.750;9.314;2023-04-03T08:13:26;5.90;99.90
40676;DHT22;26359;48.750;9.314;2023-04-03T08:15:52;5.90;99.90
40676;DHT22;26359;48.750;9.314;2023-04-03T08:18:18;6.00;99.90
40676;DHT22;26359;48.750;9.314;2023-04-03T08:20:46;6.10;99.90
40676;DHT22;26359;48.750;9.314;2023-04-03T08:23:12;6.20;99.90
40676;DHT22;26359;48.750;9.314;2023-04-03T08:25:39;6.20;99.90
40676;DHT22;26359;48.750;9.314;2023-04-03T08:28:04;6.30;99.90
40676;DHT22;26359;48.750;9.314;2023-04-03T08:30:30;6.30;99.90
40676;DHT22;26359;48.750;9.314;2023-04-03T08:32:56;6.40;99.90
40676;DHT22;26359;48.750;9.314;2023-04-03T08:35:21;6.30;99.90
40676;DHT22;26359;48.750;9.314;2023-04-03T08:37:47;6.30;99.90
40676;DHT22;26359;48.750;9.314;2023-04-03T08:40:15;6.40;99.90
40676;DHT22;26359;48.750;9.314;2023-04-03T08:42:57;6.50;99.90
40676;DHT22;26359;48.750;9.314;2023-04-03T08:45:45;6.60;99.90
40676;DHT22;26359;48.750;9.314;2023-04-03T08:48:15;6.80;99.90
40676;DHT22;26359;48.750;9.314;2023-04-03T08:50:47;6.90;99.90
40676;DHT22;26359;48.750;9.314;2023-04-03T08:53:22;7.00;99.90
40676;DHT22;26359;48.750;9.314;2023-04-03T08:55:50;7.10;99.90
40676;DHT22;26359;48.750;9.314;2023-04-03T08:58:22;7.10;99.90
40676;DHT22;26359;48.750;9.314;2023-04-03T09:03:38;6.90;99.90
40676;DHT22;26359;48.750;9.314;2023-04-03T09:08:49;6.80;99.90
40676;DHT22;26359;48.750;9.314;2023-04-03T09:11:30;6.80;99.90
40676;DHT22;26359;48.750;9.314;2023-04-03T09:22:13;6.90;99.90
40676;DHT22;26359;48.750;9.314;2023-04-03T09:24:43;6.90;99.90
40676;DHT22;26359;48.750;9.314;2023-04-03T09:27:11;7.00;99.90
40676;DHT22;26359;48.750;9.314;2023-04-03T09:29:41;7.10;99.90
40676;DHT22;26359;48.750;9.314;2023-04-03T09:32:30;7.10;99.90
40676;DHT22;26359;48.750;9.314;2023-04-03T09:35:04;7.20;99.90
40676;DHT22;26359;48.750;9.314;2023-04-03T09:37:45;7.20;99.90
40676;DHT22;26359;48.750;9.314;2023-04-03T09:42:57;7.10;99.90
40676;DHT22;26359;48.750;9.314;2023-04-03T09:45:32;7.00;99.90
40676;DHT22;26359;48.750;9.314;2023-04-03T09:48:15;7.00;99.90
40676;DHT22;26359;48.750;9.314;2023-04-03T09:56:02;7.10;99.90
40676;DHT22;26359;48.750;9.314;2023-04-03T09:58:33;7.10;99.90
40676;DHT22;26359;48.750;9.314;2023-04-03T10:01:00;7.10;99.90
40676;DHT22;26359;48.750;9.314;2023-04-03T10:03:30;6.90;99.90
40676;DHT22;26359;48.750;9.314;2023-04-03T10:05:58;6.90;99.90
40676;DHT22;26359;48.750;9.314;2023-04-03T10:08:25;6.80;99.90
40676;DHT22;26359;48.750;9.314;2023-04-03T10:11:12;6.80;99.90
40676;DHT22;26359;48.750;9.314;2023-04-03T10:13:52;6.90;99.90
40676;DHT22;26359;48.750;9.314;2023-04-03T10:16:23;6.90;99.90
40676;DHT22;26359;48.750;9.314;2023-04-03T10:27:30;6.90;99.90
40676;DHT22;26359;48.750;9.314;2023-04-03T10:30:19;6.70;99.90
40676;DHT22;26359;48.750;9.314;2023-04-03T10:33:21;6.70;99.90
40676;DHT22;26359;48.750;9.314;2023-04-03T10:39:04;6.80;99.90
40676;DHT22;26359;48.750;9.314;2023-04-03T10:44:26;7.00;99.90
40676;DHT22;26359;48.750;9.314;2023-04-03T10:47:02;6.90;99.90
40676;DHT22;26359;48.750;9.314;2023-04-03T10:52:24;6.90;99.90
40676;DHT22;26359;48.750;9.314;2023-04-03T10:55:02;6.80;99.90
40676;DHT22;26359;48.750;9.314;2023-04-03T10:57:31;6.70;99.90
40676;DHT22;26359;48.750;9.314;2023-04-03T10:59:59;6.70;99.90
40676;DHT22;26359;48.750;9.314;2023-04-03T11:02:32;6.80;99.90
40676;DHT22;26359;48.750;9.314;2023-04-03T11:05:04;6.90;99.90
40676;DHT22;26359;48.750;9.314;2023-04-03T11:07:39;6.80;99.90
40676;DHT22;26359;48.750;9.314;2023-04-03T11:13:01;6.80;99.90
40676;DHT22;26359;48.750;9.314;2023-04-03T11:15:32;6.80;99.90
40676;DHT22;26359;48.750;9.314;2023-04-03T11:18:02;6.80;99.90
40676;DHT22;26359;48.750;9.314;2023-04-03T11:20:32;6.80;99.90
40676;DHT22;26359;48.750;9.314;2023-04-03T11:23:21;6.80;99.90
40676;DHT22;26359;48.750;9.314;2023-04-03T11:25:53;6.90;99.90
40676;DHT22;26359;48.750;9.314;2023-04-03T11:28:19;6.80;99.90
40676;DHT22;26359;48.750;9.314;2023-04-03T11:36:30;7.00;99.90
40676;DHT22;26359;48.750;9.314;2023-04-03T11:39:05;7.10;99.90
40676;DHT22;26359;48.750;9.314;2023-04-03T11:41:33;7.20;99.90
40676;DHT22;26359;48.750;9.314;2023-04-03T11:44:03;7.20;99.90
40676;DHT22;26359;48.750;9.314;2023-04-03T12:08:27;7.10;99.90
40676;DHT22;26359;48.750;9.314;2023-04-03T12:16:20;7.30;99.90
40676;DHT22;26359;48.750;9.314;2023-04-03T12:18:54;7.40;99.90
40676;DHT22;26359;48.750;9.314;2023-04-03T12:26:25;7.40;99.90
40676;DHT22;26359;48.750;9.314;2023-04-03T12:28:53;7.40;99.90
40676;DHT22;26359;48.750;9.314;2023-04-03T12:31:19;7.40;99.90
40676;DHT22;26359;48.750;9.314;2023-04-03T12:34:09;7.40;99.90
40676;DHT22;26359;48.750;9.314;2023-04-03T12:36:48;7.40;99.90
40676;DHT22;26359;48.750;9.314;2023-04-03T12:45:02;7.70;99.90
40676;DHT22;26359;48.750;9.314;2023-04-03T12:47:34;8.00;99.90
40676;DHT22;26359;48.750;9.314;2023-04-03T12:50:02;8.20;99.90
40676;DHT22;26359;48.750;9.314;2023-04-03T12:52:37;8.30;99.90
40676;DHT22;26359;48.750;9.314;2023-04-03T12:55:13;8.30;99.90
40676;DHT22;26359;48.750;9.314;2023-04-03T12:57:40;8.40;99.90
40676;DHT22;26359;48.750;9.314;2023-04-03T13:00:38;8.50;99.90
40676;DHT22;26359;48.750;9.314;2023-04-03T13:03:06;8.60;99.90
40676;DHT22;26359;48.750;9.314;2023-04-03T13:05:33;8.70;99.90
40676;DHT22;26359;48.750;9.314;2023-04-03T13:08:02;8.80;99.90
40676;DHT22;26359;48.750;9.314;2023-04-03T13:10:30;8.90;99.90
40676;DHT22;26359;48.750;9.314;2023-04-03T13:13:07;9.20;99.90
40676;DHT22;26359;48.750;9.314;2023-04-03T13:15:47;9.30;99.90
40676;DHT22;26359;48.750;9.314;2023-04-03T13:18:30;8.90;99.90
40676;DHT22;26359;48.750;9.314;2023-04-03T13:21:11;8.60;99.90
40676;DHT22;26359;48.750;9.314;2023-04-03T13:23:41;8.50;99.90
40676;DHT22;26359;48.750;9.314;2023-04-03T13:26:08;8.30;99.90
40676;DHT22;26359;48.750;9.314;2023-04-03T13:28:34;8.10;99.90
40676;DHT22;26359;48.750;9.314;2023-04-03T13:33:43;8.30;99.90
40676;DHT22;26359;48.750;9.314;2023-04-03T13:36:29;8.50;99.90
40676;DHT22;26359;48.750;9.314;2023-04-03T13:39:02;8.60;99.90
40676;DHT22;26359;48.750;9.314;2023-04-03T13:41:36;8.60;99.90
40676;DHT22;26359;48.750;9.314;2023-04-03T13:49:42;8.70;99.90
40676;DHT22;26359;48.750;9.314;2023-04-03T13:52:24;8.80;99.90
40676;DHT22;26359;48.750;9.314;2023-04-03T13:54:58;8.70;99.90
40676;DHT22;26359;48.750;9.314;2023-04-03T13:57:25;8.30;99.90
40676;DHT22;26359;48.750;9.314;2023-04-03T13:59:51;8.20;99.90
40676;DHT22;26359;48.750;9.314;2023-04-03T14:02:33;8.20;99.90
40676;DHT22;26359;48.750;9.314;2023-04-03T14:05:00;8.00;99.90
40676;DHT22;26359;48.750;9.314;2023-04-03T14:07:28;8.00;99.90
40676;DHT22;26359;48.750;9.314;2023-04-03T14:09:54;8.00;99.90
40676;DHT22;26359;48.750;9.314;2023-04-03T14:12:33;8.00;99.90
40676;DHT22;26359;48.750;9.314;2023-04-03T14:15:01;8.10;99.90
40676;DHT22;26359;48.750;9.314;2023-04-03T14:17:28;8.20;99.90
40676;DHT22;26359;48.750;9.314;2023-04-03T14:19:55;8.30;99.90
40676;DHT22;26359;48.750;9.314;2023-04-03T14:22:27;8.40;99.90
40676;DHT22;26359;48.750;9.314;2023-04-03T14:24:54;8.90;99.90
40676;DHT22;26359;48.750;9.314;2023-04-03T14:27:29;9.90;99.90
40676;DHT22;26359;48.750;9.314;2023-04-03T14:29:56;10.50;99.90
40676;DHT22;26359;48.750;9.314;2023-04-03T14:32:23;10.70;99.90
40676;DHT22;26359;48.750;9.314;2023-04-03T14:34:50;10.70;99.90
40676;DHT22;26359;48.750;9.314;2023-04-03T14:37:19;10.40;99.90
40676;DHT22;26359;48.750;9.314;2023-04-03T14:39:46;9.90;99.90
40676;DHT22;26359;48.750;9.314;2023-04-03T14:42:15;9.60;99.90
40676;DHT22;26359;48.750;9.314;2023-04-03T14:44:41;9.40;99.90
40676;DHT22;26359;48.750;9.314;2023-04-03T14:47:13;9.10;99.90
40676;DHT22;26359;48.750;9.314;2023-04-03T14:49:40;9.00;99.90
40676;DHT22;26359;48.750;9.314;2023-04-03T14:52:06;8.70;99.90
40676;DHT22;26359;48.750;9.314;2023-04-03T14:54:31;8.70;99.90
40676;DHT22;26359;48.750;9.314;2023-04-03T14:56:59;8.60;99.90
40676;DHT22;26359;48.750;9.314;2023-04-03T14:59:27;8.50;99.90
40676;DHT22;26359;48.750;9.314;2023-04-03T15:01:54;8.50;99.90
40676;DHT22;26359;48.750;9.314;2023-04-03T15:04:20;8.50;99.90
40676;DHT22;26359;48.750;9.314;2023-04-03T15:06:47;8.60;99.90
40676;DHT22;26359;48.750;9.314;2023-04-03T15:09:34;8.70;99.90
40676;DHT22;26359;48.750;9.314;2023-04-03T15:12:01;8.80;99.90
40676;DHT22;26359;48.750;9.314;2023-04-03T15:14:26;8.80;99.90
40676;DHT22;26359;48.750;9.314;2023-04-03T15:16:52;8.70;99.90
40676;DHT22;26359;48.750;9.314;2023-04-03T15:19:17;8.60;99.90
40676;DHT22;26359;48.750;9.314;2023-04-03T15:21:43;8.50;99.90
40676;DHT22;26359;48.750;9.314;2023-04-03T15:24:09;8.30;99.90
40676;DHT22;26359;48.750;9.314;2023-04-03T15:26:34;8.10;99.90
40676;DHT22;26359;48.750;9.314;2023-04-03T15:29:00;8.00;99.90
40676;DHT22;26359;48.750;9.314;2023-04-03T15:31:26;8.30;99.90
40676;DHT22;26359;48.750;9.314;2023-04-03T15:33:52;8.70;99.90
40676;DHT22;26359;48.750;9.314;2023-04-03T15:36:17;9.10;99.90
40676;DHT22;26359;48.750;9.314;2023-04-03T15:38:43;9.50;99.90
40676;DHT22;26359;48.750;9.314;2023-04-03T15:41:08;9.70;99.90
40676;DHT22;26359;48.750;9.314;2023-04-03T15:43:34;9.70;99.90
40676;DHT22;26359;48.750;9.314;2023-04-03T15:46:00;9.80;99.90
40676;DHT22;26359;48.750;9.314;2023-04-03T15:48:27;9.60;99.90
40676;DHT22;26359;48.750;9.314;2023-04-03T15:50:53;9.50;99.90
40676;DHT22;26359;48.750;9.314;2023-04-03T15:53:19;9.50;99.90
40676;DHT22;26359;48.750;9.314;2023-04-03T15:55:45;9.60;99.90
40676;DHT22;26359;48.750;9.314;2023-04-03T15:58:11;9.60;99.90
40676;DHT22;26359;48.750;9.314;2023-04-03T16:00:36;9.50;99.90
40676;DHT22;26359;48.750;9.314;2023-04-03T16:03:08;9.30;99.90
40676;DHT22;26359;48.750;9.314;2023-04-03T16:05:35;9.00;99.90
40676;DHT22;26359;48.750;9.314;2023-04-03T16:08:02;8.80;99.90
40676;DHT22;26359;48.750;9.314;2023-04-03T16:10:28;8.60;99.90
40676;DHT22;26359;48.750;9.314;2023-04-03T16:12:54;8.40;99.90
40676;DHT22;26359;48.750;9.314;2023-04-03T16:15:19;8.20;99.90
40676;DHT22;26359;48.750;9.314;2023-04-03T16:17:45;8.10;99.90
40676;DHT22;26359;48.750;9.314;2023-04-03T16:20:12;8.00;99.90
40676;DHT22;26359;48.750;9.314;2023-04-03T16:22:39;8.10;99.90
40676;DHT22;26359;48.750;9.314;2023-04-03T16:25:06;8.40;99.90
40676;DHT22;26359;48.750;9.314;2023-04-03T16:27:32;8.80;99.90
40676;DHT22;26359;48.750;9.314;2023-04-03T16:29:58;9.30;99.90
40676;DHT22;26359;48.750;9.314;2023-04-03T16:32:24;9.70;99.90
40676;DHT22;26359;48.750;9.314;2023-04-03T16:34:52;10.00;99.90
40676;DHT22;26359;48.750;9.314;2023-04-03T16:37:17;10.10;99.90
40676;DHT22;26359;48.750;9.314;2023-04-03T16:39:43;10.20;99.90
40676;DHT22;26359;48.750;9.314;2023-04-03T16:42:08;9.90;99.60
40676;DHT22;26359;48.750;9.314;2023-04-03T16:44:35;9.60;99.90
40676;DHT22;26359;48.750;9.314;2023-04-03T16:47:01;9.30;99.80
40676;DHT22;26359;48.750;9.314;2023-04-03T16:49:27;9.00;99.90
40676;DHT22;26359;48.750;9.314;2023-04-03T16:51:57;8.80;99.90
40676;DHT22;26359;48.750;9.314;2023-04-03T16:54:23;8.60;99.90
40676;DHT22;26359;48.750;9.314;2023-04-03T16:56:48;8.50;99.90
40676;DHT22;26359;48.750;9.314;2023-04-03T16:59:14;8.30;99.90
40676;DHT22;26359;48.750;9.314;2023-04-03T17:01:40;8.20;99.90
40676;DHT22;26359;48.750;9.314;2023-04-03T17:04:05;8.00;99.90
40676;DHT22;26359;48.750;9.314;2023-04-03T17:06:31;7.90;99.90
40676;DHT22;26359;48.750;9.314;2023-04-03T17:08:57;7.80;99.90
40676;DHT22;26359;48.750;9.314;2023-04-03T17:11:22;7.80;99.90
40676;DHT22;26359;48.750;9.314;2023-04-03T17:13:48;7.80;99.90
40676;DHT22;26359;48.750;9.314;2023-04-03T17:16:15;7.60;99.90
40676;DHT22;26359;48.750;9.314;2023-04-03T17:18:41;7.50;99.90
40676;DHT22;26359;48.750;9.314;2023-04-03T17:21:07;7.40;99.90
40676;DHT22;26359;48.750;9.314;2023-04-03T17:23:35;7.30;99.90
40676;DHT22;26359;48.750;9.314;2023-04-03T17:26:02;7.30;99.90
40676;DHT22;26359;48.750;9.314;2023-04-03T17:28:28;7.30;99.90
40676;DHT22;26359;48.750;9.314;2023-04-03T17:30:58;7.30;99.90
40676;DHT22;26359;48.750;9.314;2023-04-03T17:33:25;7.20;99.90